createdAt,value
2017-11-27T00:00:24.296Z,4.8
2017-11-27T00:01:25.900Z,4.8
2017-11-27T00:02:27.501Z,4.8
2017-11-27T00:03:29.108Z,4.9
2017-11-27T00:04:30.709Z,4.7
2017-11-27T00:05:32.315Z,4.8
2017-11-27T00:06:33.916Z,4.8
2017-11-27T00:07:35.525Z,4.9
2017-11-27T00:08:37.209Z,4.9
2017-11-27T00:09:38.808Z,4.9
2017-11-27T00:10:40.420Z,4.8
2017-11-27T00:11:42.023Z,4.7
2017-11-27T00:12:43.632Z,4.8
2017-11-27T00:13:45.222Z,4.8
2017-11-27T00:14:46.831Z,4.7
2017-11-27T00:15:48.431Z,4.7
2017-11-27T00:16:50.039Z,4.6
2017-11-27T00:17:51.644Z,4.5
2017-11-27T00:18:53.251Z,4.6
2017-11-27T00:19:54.855Z,4.5
2017-11-27T00:20:56.457Z,4.6
2017-11-27T00:21:58.056Z,4.5
2017-11-27T00:22:59.665Z,4.6
2017-11-27T00:24:01.264Z,4.6
2017-11-27T00:25:02.871Z,4.6
2017-11-27T00:26:04.491Z,4.5
2017-11-27T00:27:06.082Z,4.6
2017-11-27T00:28:07.684Z,4.6
2017-11-27T00:29:09.289Z,4.6
2017-11-27T00:30:10.890Z,4.6
2017-11-27T00:31:12.488Z,4.6
2017-11-27T00:32:14.099Z,4.6
2017-11-27T00:33:15.699Z,4.6
2017-11-27T00:34:17.304Z,4.6
2017-11-27T00:35:18.903Z,4.5
2017-11-27T00:36:20.509Z,4.5
2017-11-27T00:37:22.111Z,4.5
2017-11-27T00:38:23.720Z,4.5
2017-11-27T00:39:25.319Z,4.5
2017-11-27T00:40:26.926Z,4.5
2017-11-27T00:41:28.523Z,4.5
2017-11-27T00:42:30.125Z,4.5
2017-11-27T00:43:31.730Z,4.5
2017-11-27T00:44:33.332Z,4.5
2017-11-27T00:45:34.933Z,4.5
2017-11-27T00:46:36.544Z,4.5
2017-11-27T00:47:38.150Z,4.5
2017-11-27T00:48:39.746Z,4.5
2017-11-27T00:49:41.352Z,4.6
2017-11-27T00:50:42.953Z,4.6
2017-11-27T00:51:44.561Z,4.5
2017-11-27T00:52:46.170Z,4.5
2017-11-27T00:53:47.773Z,4.6
2017-11-27T00:54:49.375Z,4.5
2017-11-27T00:55:50.980Z,4.7
2017-11-27T00:56:52.580Z,4.5
2017-11-27T00:57:54.181Z,4.5
2017-11-27T00:58:55.784Z,4.6
2017-11-27T00:59:57.388Z,4.7
2017-11-27T01:00:58.990Z,4.8
2017-11-27T01:02:00.596Z,4.6
2017-11-27T01:03:02.204Z,4.7
2017-11-27T01:04:03.808Z,4.7
2017-11-27T01:05:05.412Z,4.7
2017-11-27T01:06:07.017Z,4.8
2017-11-27T01:07:08.615Z,4.7
2017-11-27T01:08:10.218Z,4.7
2017-11-27T01:09:11.826Z,4.8
2017-11-27T01:10:13.436Z,4.7
2017-11-27T01:11:15.028Z,4.7
2017-11-27T01:12:16.630Z,4.7
2017-11-27T01:13:18.235Z,4.7
2017-11-27T01:14:19.843Z,4.6
2017-11-27T01:15:21.454Z,4.6
2017-11-27T01:16:23.050Z,4.6
2017-11-27T01:17:24.660Z,4.6
2017-11-27T01:18:26.257Z,4.6
2017-11-27T01:19:27.856Z,4.5
2017-11-27T01:20:29.460Z,4.4
2017-11-27T01:21:31.062Z,4.5
2017-11-27T01:22:32.666Z,4.4
2017-11-27T01:23:34.276Z,4.5
2017-11-27T01:24:35.882Z,4.4
2017-11-27T01:25:37.493Z,4.4
2017-11-27T01:26:39.081Z,4.4
2017-11-27T01:27:40.684Z,4.3
2017-11-27T01:28:42.293Z,4.3
2017-11-27T01:29:43.893Z,4.4
2017-11-27T01:30:45.509Z,4.4
2017-11-27T01:31:47.102Z,4.4
2017-11-27T01:32:48.708Z,4.3
2017-11-27T01:33:50.310Z,4.3
2017-11-27T01:34:51.916Z,4.4
2017-11-27T01:35:53.514Z,4.4
2017-11-27T01:36:55.115Z,4.4
2017-11-27T01:37:56.732Z,4.4
2017-11-27T01:38:58.327Z,4.4
2017-11-27T01:39:59.926Z,4.4
2017-11-27T01:41:01.528Z,4.3
2017-11-27T01:42:03.145Z,4.4
2017-11-27T01:43:04.740Z,4.4
2017-11-27T01:44:06.340Z,4.3
2017-11-27T01:45:07.944Z,4.4
2017-11-27T01:46:09.548Z,4.5
2017-11-27T01:47:11.148Z,4.4
2017-11-27T01:48:12.757Z,4.4
2017-11-27T01:49:14.352Z,4.4
2017-11-27T01:50:15.958Z,4.4
2017-11-27T01:51:17.559Z,4.4
2017-11-27T01:52:19.169Z,4.4
2017-11-27T01:53:20.765Z,4.4
2017-11-27T01:54:22.380Z,4.4
2017-11-27T01:55:23.975Z,4.4
2017-11-27T01:56:25.582Z,4.4
2017-11-27T01:57:27.184Z,4.4
2017-11-27T01:58:28.791Z,4.4
2017-11-27T01:59:30.394Z,4.4
2017-11-27T02:00:31.997Z,4.4
2017-11-27T02:01:33.596Z,4.4
2017-11-27T02:02:35.203Z,4.5
2017-11-27T02:03:36.803Z,4.5
2017-11-27T02:04:38.404Z,4.4
2017-11-27T02:05:40.016Z,4.5
2017-11-27T02:06:41.614Z,4.5
2017-11-27T02:07:43.215Z,4.4
2017-11-27T02:08:44.819Z,4.4
2017-11-27T02:09:46.425Z,4.5
2017-11-27T02:10:48.030Z,4.4
2017-11-27T02:11:49.648Z,4.4
2017-11-27T02:12:51.246Z,4.5
2017-11-27T02:13:52.844Z,4.5
2017-11-27T02:14:54.452Z,4.5
2017-11-27T02:15:56.058Z,4.5
2017-11-27T02:16:57.655Z,4.6
2017-11-27T02:17:59.257Z,4.5
2017-11-27T02:19:00.863Z,4.5
2017-11-27T02:20:02.477Z,4.6
2017-11-27T02:21:04.084Z,4.6
2017-11-27T02:22:05.686Z,4.6
2017-11-27T02:23:07.286Z,4.6
2017-11-27T02:24:08.899Z,4.7
2017-11-27T02:25:10.494Z,4.7
2017-11-27T02:26:12.098Z,4.7
2017-11-27T02:27:13.701Z,4.7
2017-11-27T02:28:15.302Z,4.6
2017-11-27T02:29:16.909Z,4.6
2017-11-27T02:30:18.514Z,4.7
2017-11-27T02:31:20.121Z,4.6
2017-11-27T02:32:21.720Z,4.6
2017-11-27T02:33:23.325Z,4.6
2017-11-27T02:34:24.928Z,4.7
2017-11-27T02:35:26.535Z,4.7
2017-11-27T02:36:28.139Z,4.7
2017-11-27T02:37:29.742Z,4.7
2017-11-27T02:38:31.341Z,4.7
2017-11-27T02:39:32.952Z,4.8
2017-11-27T02:40:34.558Z,4.7
2017-11-27T02:41:36.156Z,4.7
2017-11-27T02:42:37.758Z,4.7
2017-11-27T02:43:39.366Z,4.7
2017-11-27T02:44:40.964Z,4.8
2017-11-27T02:45:42.570Z,4.7
2017-11-27T02:46:44.168Z,4.7
2017-11-27T02:47:45.778Z,4.8
2017-11-27T02:48:47.383Z,4.7
2017-11-27T02:49:48.987Z,4.6
2017-11-27T02:50:50.584Z,4.6
2017-11-27T02:51:52.187Z,4.6
2017-11-27T02:52:53.789Z,4.7
2017-11-27T02:53:55.396Z,4.6
2017-11-27T02:54:57.000Z,4.7
2017-11-27T02:55:58.601Z,4.7
2017-11-27T02:57:00.205Z,4.7
2017-11-27T02:58:01.812Z,4.7
2017-11-27T02:59:03.418Z,4.6
2017-11-27T03:00:05.021Z,4.6
2017-11-27T03:01:06.618Z,4.5
2017-11-27T03:02:08.220Z,4.6
2017-11-27T03:03:09.829Z,4.6
2017-11-27T03:04:11.436Z,4.7
2017-11-27T03:05:13.029Z,4.6
2017-11-27T03:06:14.639Z,4.6
2017-11-27T03:07:16.243Z,4.5
2017-11-27T03:08:17.849Z,4.5
2017-11-27T03:09:19.452Z,4.5
2017-11-27T03:10:21.050Z,4.5
2017-11-27T03:11:22.659Z,4.5
2017-11-27T03:12:24.258Z,4.5
2017-11-27T03:13:25.865Z,4.5
2017-11-27T03:14:27.466Z,4.5
2017-11-27T03:15:29.070Z,4.5
2017-11-27T03:16:30.671Z,4.5
2017-11-27T03:17:32.273Z,4.4
2017-11-27T03:18:33.885Z,4.5
2017-11-27T03:19:35.489Z,4.5
2017-11-27T03:20:37.094Z,4.5
2017-11-27T03:21:38.701Z,4.5
2017-11-27T03:22:40.300Z,4.5
2017-11-27T03:23:41.908Z,4.5
2017-11-27T03:24:43.516Z,4.5
2017-11-27T03:25:45.111Z,4.5
2017-11-27T03:26:46.713Z,4.5
2017-11-27T03:27:48.315Z,4.5
2017-11-27T03:28:49.921Z,4.5
2017-11-27T03:29:51.520Z,4.5
2017-11-27T03:30:53.129Z,4.5
2017-11-27T03:31:54.728Z,4.5
2017-11-27T03:32:56.338Z,4.5
2017-11-27T03:33:57.941Z,4.6
2017-11-27T03:34:59.538Z,4.6
2017-11-27T03:36:01.138Z,4.6
2017-11-27T03:37:02.743Z,4.6
2017-11-27T03:38:04.343Z,4.6
2017-11-27T03:39:05.950Z,4.6
2017-11-27T03:40:07.557Z,4.5
2017-11-27T03:41:09.154Z,4.6
2017-11-27T03:42:10.760Z,4.5
2017-11-27T03:43:12.367Z,4.6
2017-11-27T03:44:13.962Z,4.7
2017-11-27T03:45:15.571Z,4.7
2017-11-27T03:46:17.177Z,4.7
2017-11-27T03:47:18.786Z,4.6
2017-11-27T03:48:20.376Z,4.6
2017-11-27T03:49:21.985Z,4.6
2017-11-27T03:50:23.586Z,4.7
2017-11-27T03:51:25.189Z,4.7
2017-11-27T03:52:26.799Z,4.7
2017-11-27T03:53:28.396Z,4.7
2017-11-27T03:54:29.998Z,4.7
2017-11-27T03:55:31.600Z,4.7
2017-11-27T03:56:33.207Z,4.8
2017-11-27T03:57:34.808Z,4.7
2017-11-27T03:58:36.412Z,4.8
2017-11-27T03:59:38.019Z,4.8
2017-11-27T04:00:39.625Z,4.8
2017-11-27T04:01:41.226Z,4.7
2017-11-27T04:02:42.825Z,4.8
2017-11-27T04:03:44.431Z,4.8
2017-11-27T04:04:46.036Z,4.7
2017-11-27T04:05:47.637Z,4.8
2017-11-27T04:06:49.239Z,4.8
2017-11-27T04:07:50.848Z,4.8
2017-11-27T04:08:52.447Z,4.8
2017-11-27T04:09:54.055Z,4.7
2017-11-27T04:10:55.686Z,4.8
2017-11-27T04:11:57.265Z,4.7
2017-11-27T04:12:58.863Z,4.7
2017-11-27T04:14:00.483Z,4.7
2017-11-27T04:15:02.106Z,4.7
2017-11-27T04:16:03.704Z,4.7
2017-11-27T04:17:05.305Z,4.7
2017-11-27T04:18:06.903Z,4.7
2017-11-27T04:19:08.510Z,4.6
2017-11-27T04:20:10.110Z,4.6
2017-11-27T04:21:11.717Z,4.7
2017-11-27T04:22:13.317Z,4.7
2017-11-27T04:23:14.923Z,4.7
2017-11-27T04:24:16.528Z,4.6
2017-11-27T04:25:18.128Z,4.6
2017-11-27T04:26:19.730Z,4.7
2017-11-27T04:27:21.339Z,4.6
2017-11-27T04:28:22.946Z,4.6
2017-11-27T04:29:24.555Z,4.6
2017-11-27T04:30:26.152Z,4.5
2017-11-27T04:31:27.757Z,4.5
2017-11-27T04:32:29.360Z,4.6
2017-11-27T04:33:30.962Z,4.7
2017-11-27T04:34:32.573Z,4.7
2017-11-27T04:35:34.164Z,4.6
2017-11-27T04:36:35.774Z,4.8
2017-11-27T04:37:37.372Z,4.8
2017-11-27T04:38:38.979Z,4.8
2017-11-27T04:39:40.578Z,4.7
2017-11-27T04:40:42.190Z,4.7
2017-11-27T04:41:43.792Z,4.7
2017-11-27T04:42:45.401Z,4.7
2017-11-27T04:43:47.005Z,4.7
2017-11-27T04:44:48.609Z,4.8
2017-11-27T04:45:50.207Z,4.8
2017-11-27T04:46:51.816Z,4.7
2017-11-27T04:47:53.421Z,4.6
2017-11-27T04:48:55.022Z,4.6
2017-11-27T04:49:56.624Z,4.8
2017-11-27T04:50:59.757Z,4.9
2017-11-27T04:52:01.369Z,4.9
2017-11-27T04:53:02.967Z,4.9
2017-11-27T04:54:04.569Z,4.9
2017-11-27T04:55:06.169Z,4.9
2017-11-27T04:56:07.797Z,4.9
2017-11-27T04:57:09.403Z,5.0
2017-11-27T04:58:11.004Z,4.9
2017-11-27T04:59:12.617Z,4.9
2017-11-27T05:00:14.210Z,5.0
2017-11-27T05:01:15.816Z,5.0
2017-11-27T05:02:17.413Z,5.1
2017-11-27T05:03:19.021Z,5.0
2017-11-27T05:04:20.620Z,5.0
2017-11-27T05:05:22.229Z,4.9
2017-11-27T05:06:23.828Z,4.9
2017-11-27T05:07:25.438Z,4.9
2017-11-27T05:08:27.034Z,4.8
2017-11-27T05:09:28.645Z,4.9
2017-11-27T05:10:30.253Z,4.9
2017-11-27T05:11:31.862Z,4.9
2017-11-27T05:12:33.469Z,5.0
2017-11-27T05:13:35.068Z,5.0
2017-11-27T05:14:36.675Z,5.0
2017-11-27T05:15:38.277Z,5.0
2017-11-27T05:16:39.886Z,5.0
2017-11-27T05:17:41.483Z,5.0
2017-11-27T05:18:43.092Z,5.0
2017-11-27T05:19:44.694Z,5.0
2017-11-27T05:20:46.304Z,5.1
2017-11-27T05:21:47.900Z,5.2
2017-11-27T05:22:49.510Z,5.2
2017-11-27T05:23:51.109Z,5.2
2017-11-27T05:24:52.726Z,5.2
2017-11-27T05:25:54.317Z,5.1
2017-11-27T05:26:55.925Z,5.1
2017-11-27T05:27:57.527Z,5.1
2017-11-27T05:28:59.601Z,5.1
2017-11-27T05:30:01.202Z,5.1
2017-11-27T05:31:02.765Z,5.1
2017-11-27T05:32:04.373Z,5.1
2017-11-27T05:33:05.979Z,5.0
2017-11-27T05:34:07.576Z,5.0
2017-11-27T05:35:09.181Z,5.1
2017-11-27T05:36:10.786Z,5.1
2017-11-27T05:37:12.394Z,5.1
2017-11-27T05:38:13.992Z,5.1
2017-11-27T05:39:15.594Z,5.1
2017-11-27T05:40:17.201Z,5.1
2017-11-27T05:41:18.808Z,5.0
2017-11-27T05:42:20.409Z,5.1
2017-11-27T05:43:22.009Z,5.1
2017-11-27T05:44:23.613Z,5.1
2017-11-27T05:45:25.217Z,5.1
2017-11-27T05:46:26.822Z,5.2
2017-11-27T05:47:28.434Z,5.2
2017-11-27T05:48:30.033Z,5.2
2017-11-27T05:49:31.639Z,5.2
2017-11-27T05:50:33.260Z,5.2
2017-11-27T05:51:34.865Z,5.3
2017-11-27T05:52:36.464Z,5.3
2017-11-27T05:53:38.065Z,5.2
2017-11-27T05:54:39.676Z,5.3
2017-11-27T05:55:41.274Z,5.3
2017-11-27T05:56:42.884Z,5.3
2017-11-27T05:57:44.480Z,5.2
2017-11-27T05:58:46.091Z,5.2
2017-11-27T05:59:47.690Z,5.2
2017-11-27T06:00:49.297Z,5.2
2017-11-27T06:01:50.904Z,5.2
2017-11-27T06:02:52.506Z,5.2
2017-11-27T06:03:54.108Z,5.2
2017-11-27T06:04:55.714Z,5.3
2017-11-27T06:05:57.312Z,5.3
2017-11-27T06:06:58.918Z,5.3
2017-11-27T06:08:00.519Z,5.3
2017-11-27T06:09:02.124Z,5.3
2017-11-27T06:10:03.730Z,5.3
2017-11-27T06:11:05.332Z,5.4
2017-11-27T06:12:06.954Z,5.5
2017-11-27T06:13:08.543Z,5.5
2017-11-27T06:14:10.148Z,5.4
2017-11-27T06:15:11.748Z,5.4
2017-11-27T06:16:13.354Z,5.5
2017-11-27T06:17:14.966Z,5.4
2017-11-27T06:18:16.564Z,5.4
2017-11-27T06:19:18.160Z,5.4
2017-11-27T06:20:19.769Z,5.4
2017-11-27T06:21:21.371Z,5.4
2017-11-27T06:22:22.979Z,5.4
2017-11-27T06:23:24.580Z,5.4
2017-11-27T06:24:26.187Z,5.4
2017-11-27T06:25:27.787Z,5.4
2017-11-27T06:26:29.395Z,5.3
2017-11-27T06:27:30.996Z,5.4
2017-11-27T06:28:32.596Z,5.4
2017-11-27T06:29:34.206Z,5.4
2017-11-27T06:30:35.811Z,5.4
2017-11-27T06:31:37.412Z,5.3
2017-11-27T06:32:39.021Z,5.3
2017-11-27T06:33:40.637Z,5.4
2017-11-27T06:34:42.245Z,5.3
2017-11-27T06:35:43.845Z,5.3
2017-11-27T06:36:45.447Z,5.3
2017-11-27T06:37:47.055Z,5.3
2017-11-27T06:38:48.664Z,5.3
2017-11-27T06:39:50.263Z,5.4
2017-11-27T06:40:51.865Z,5.4
2017-11-27T06:41:53.471Z,5.3
2017-11-27T06:42:55.073Z,5.3
2017-11-27T06:43:56.679Z,5.4
2017-11-27T06:44:58.285Z,5.3
2017-11-27T06:45:59.893Z,5.3
2017-11-27T06:47:01.489Z,5.3
2017-11-27T06:48:03.095Z,5.3
2017-11-27T06:49:04.703Z,5.3
2017-11-27T06:50:06.303Z,5.3
2017-11-27T06:51:07.904Z,5.4
2017-11-27T06:52:09.515Z,5.3
2017-11-27T06:53:11.120Z,5.3
2017-11-27T06:54:12.724Z,5.4
2017-11-27T06:55:14.347Z,5.6
2017-11-27T06:56:15.965Z,5.4
2017-11-27T06:57:17.565Z,5.5
2017-11-27T06:58:19.170Z,5.4
2017-11-27T06:59:20.777Z,5.4
2017-11-27T07:00:22.384Z,5.4
2017-11-27T07:01:23.985Z,5.3
2017-11-27T07:02:25.592Z,5.3
2017-11-27T07:03:27.196Z,5.3
2017-11-27T07:04:28.800Z,5.6
2017-11-27T07:05:30.401Z,5.5
2017-11-27T07:06:32.005Z,5.4
2017-11-27T07:07:33.620Z,5.4
2017-11-27T07:08:35.215Z,5.3
2017-11-27T07:09:36.820Z,5.3
2017-11-27T07:10:38.423Z,5.2
2017-11-27T07:11:40.034Z,5.2
2017-11-27T07:12:41.634Z,5.2
2017-11-27T07:13:43.248Z,5.2
2017-11-27T07:14:44.855Z,5.2
2017-11-27T07:15:46.470Z,5.1
2017-11-27T07:16:48.075Z,5.1
2017-11-27T07:17:49.685Z,5.1
2017-11-27T07:18:51.288Z,5.1
2017-11-27T07:19:52.904Z,5.0
2017-11-27T07:20:54.506Z,5.1
2017-11-27T07:21:56.121Z,5.1
2017-11-27T07:22:57.736Z,5.0
2017-11-27T07:23:59.330Z,5.0
2017-11-27T07:25:00.938Z,5.1
2017-11-27T07:26:02.542Z,5.0
2017-11-27T07:27:04.151Z,4.9
2017-11-27T07:28:05.754Z,5.0
2017-11-27T07:29:07.368Z,5.0
2017-11-27T07:30:08.972Z,4.9
2017-11-27T07:31:10.580Z,5.0
2017-11-27T07:32:12.193Z,5.0
2017-11-27T07:33:13.792Z,4.9
2017-11-27T07:34:15.399Z,4.9
2017-11-27T07:35:17.003Z,4.9
2017-11-27T07:36:18.609Z,4.9
2017-11-27T07:37:20.220Z,5.0
2017-11-27T07:38:21.825Z,4.9
2017-11-27T07:39:23.431Z,4.9
2017-11-27T07:40:25.036Z,5.0
2017-11-27T07:41:26.641Z,4.9
2017-11-27T07:42:28.246Z,4.9
2017-11-27T07:43:29.856Z,4.9
2017-11-27T07:44:31.471Z,4.9
2017-11-27T07:45:33.090Z,4.8
2017-11-27T07:46:34.678Z,4.8
2017-11-27T07:47:36.286Z,4.9
2017-11-27T07:48:37.893Z,4.8
2017-11-27T07:49:39.501Z,4.8
2017-11-27T07:50:41.106Z,4.7
2017-11-27T07:51:42.714Z,4.8
2017-11-27T07:52:44.325Z,4.9
2017-11-27T07:53:45.926Z,4.9
2017-11-27T07:54:47.537Z,4.8
2017-11-27T07:55:49.140Z,4.8
2017-11-27T07:56:50.746Z,4.9
2017-11-27T07:57:52.359Z,4.9
2017-11-27T07:58:53.969Z,4.8
2017-11-27T07:59:55.570Z,4.8
2017-11-27T08:00:57.175Z,4.9
2017-11-27T08:01:58.777Z,4.8
2017-11-27T08:03:00.385Z,4.8
2017-11-27T08:04:01.987Z,4.8
2017-11-27T08:05:03.600Z,4.8
2017-11-27T08:06:05.211Z,4.8
2017-11-27T08:07:06.819Z,4.7
2017-11-27T08:08:08.425Z,4.8
2017-11-27T08:09:10.031Z,4.8
2017-11-27T08:10:11.637Z,4.8
2017-11-27T08:11:13.250Z,4.8
2017-11-27T08:12:14.860Z,4.9
2017-11-27T08:13:16.503Z,4.9
2017-11-27T08:14:18.075Z,4.7
2017-11-27T08:15:19.692Z,4.9
2017-11-27T08:16:21.289Z,4.8
2017-11-27T08:17:22.900Z,4.9
2017-11-27T08:18:24.505Z,4.8
2017-11-27T08:19:26.122Z,4.8
2017-11-27T08:20:27.728Z,4.8
2017-11-27T08:21:29.334Z,4.8
2017-11-27T08:22:30.969Z,4.8
2017-11-27T08:23:32.544Z,4.9
2017-11-27T08:24:34.160Z,4.8
2017-11-27T08:25:35.762Z,4.8
2017-11-27T08:26:37.375Z,4.8
2017-11-27T08:27:38.981Z,4.8
2017-11-27T08:28:40.585Z,4.8
2017-11-27T08:29:42.192Z,4.8
2017-11-27T08:30:43.803Z,4.8
2017-11-27T08:31:45.410Z,4.8
2017-11-27T08:32:47.022Z,4.8
2017-11-27T08:33:48.629Z,4.8
2017-11-27T08:34:50.241Z,4.7
2017-11-27T08:35:51.844Z,4.8
2017-11-27T08:36:53.451Z,4.8
2017-11-27T08:37:55.062Z,4.8
2017-11-27T08:38:56.676Z,4.8
2017-11-27T08:39:58.279Z,4.8
2017-11-27T08:40:59.889Z,4.7
2017-11-27T08:42:01.503Z,4.7
2017-11-27T08:43:03.109Z,4.8
2017-11-27T08:44:04.719Z,4.9
2017-11-27T08:45:06.323Z,4.8
2017-11-27T08:46:07.936Z,4.8
2017-11-27T08:47:09.542Z,4.8
2017-11-27T08:48:11.151Z,4.8
2017-11-27T08:49:12.766Z,4.8
2017-11-27T08:50:14.378Z,4.8
2017-11-27T08:51:15.980Z,4.8
2017-11-27T08:52:17.615Z,4.8
2017-11-27T08:53:19.200Z,4.7
2017-11-27T08:54:20.810Z,4.8
2017-11-27T08:55:22.416Z,4.8
2017-11-27T08:56:24.028Z,4.9
2017-11-27T08:57:25.629Z,4.8
2017-11-27T08:58:27.235Z,4.9
2017-11-27T08:59:28.845Z,4.9
2017-11-27T09:00:30.456Z,4.8
2017-11-27T09:01:32.074Z,4.9
2017-11-27T09:02:33.675Z,4.9
2017-11-27T09:03:35.288Z,4.8
2017-11-27T09:04:36.904Z,4.9
2017-11-27T09:05:38.499Z,4.9
2017-11-27T09:06:40.105Z,4.9
2017-11-27T09:07:41.720Z,4.9
2017-11-27T09:08:43.327Z,4.9
2017-11-27T09:09:44.932Z,4.9
2017-11-27T09:10:46.546Z,4.9
2017-11-27T09:11:48.146Z,5.0
2017-11-27T09:12:49.765Z,5.0
2017-11-27T09:13:51.370Z,5.0
2017-11-27T09:14:52.982Z,5.0
2017-11-27T09:15:54.589Z,5.0
2017-11-27T09:16:56.197Z,5.1
2017-11-27T09:17:57.809Z,5.0
2017-11-27T09:18:59.422Z,5.1
2017-11-27T09:20:01.027Z,5.0
2017-11-27T09:21:02.636Z,5.1
2017-11-27T09:22:04.251Z,5.1
2017-11-27T09:23:05.865Z,5.1
2017-11-27T09:24:07.470Z,5.1
2017-11-27T09:25:09.081Z,5.1
2017-11-27T09:26:10.691Z,5.1
2017-11-27T09:27:12.300Z,5.1
2017-11-27T09:28:13.915Z,5.1
2017-11-27T09:29:15.519Z,5.2
2017-11-27T09:30:17.128Z,5.2
2017-11-27T09:31:18.736Z,5.2
2017-11-27T09:32:20.355Z,5.2
2017-11-27T09:33:21.958Z,5.2
2017-11-27T09:34:23.562Z,5.2
2017-11-27T09:35:25.168Z,5.2
2017-11-27T09:36:26.780Z,5.3
2017-11-27T09:37:28.388Z,5.2
2017-11-27T09:38:30.003Z,5.3
2017-11-27T09:39:31.603Z,5.3
2017-11-27T09:40:33.213Z,5.3
2017-11-27T09:41:34.822Z,5.4
2017-11-27T09:42:36.426Z,5.4
2017-11-27T09:43:38.031Z,5.4
2017-11-27T09:44:39.646Z,5.4
2017-11-27T09:45:41.251Z,5.4
2017-11-27T09:46:42.865Z,5.4
2017-11-27T09:47:44.469Z,5.4
2017-11-27T09:48:46.083Z,5.4
2017-11-27T09:49:47.687Z,5.4
2017-11-27T09:50:49.300Z,5.5
2017-11-27T09:51:50.911Z,5.5
2017-11-27T09:52:52.529Z,5.5
2017-11-27T09:53:54.134Z,5.5
2017-11-27T09:54:55.748Z,5.5
2017-11-27T09:55:57.367Z,5.5
2017-11-27T09:56:58.977Z,5.5
2017-11-27T09:58:00.582Z,5.6
2017-11-27T09:59:02.194Z,5.6
2017-11-27T10:00:03.808Z,5.6
2017-11-27T10:01:05.414Z,5.7
2017-11-27T10:02:07.059Z,5.7
2017-11-27T10:03:08.627Z,5.7
2017-11-27T10:04:10.245Z,5.7
2017-11-27T10:05:11.846Z,5.7
2017-11-27T10:06:13.462Z,5.7
2017-11-27T10:07:15.062Z,5.7
2017-11-27T10:08:16.677Z,5.7
2017-11-27T10:09:18.283Z,5.7
2017-11-27T10:10:19.896Z,5.7
2017-11-27T10:11:21.499Z,5.7
2017-11-27T10:12:23.113Z,5.7
2017-11-27T10:13:24.720Z,5.7
2017-11-27T10:14:26.337Z,5.8
2017-11-27T10:15:27.944Z,5.8
2017-11-27T10:16:29.555Z,5.8
2017-11-27T10:17:31.160Z,5.8
2017-11-27T10:18:32.772Z,5.8
2017-11-27T10:19:34.377Z,5.8
2017-11-27T10:20:35.990Z,5.9
2017-11-27T10:21:37.601Z,5.9
2017-11-27T10:22:39.213Z,5.9
2017-11-27T10:23:40.818Z,5.9
2017-11-27T10:24:42.429Z,6.0
2017-11-27T10:25:44.036Z,5.9
2017-11-27T10:26:45.641Z,5.9
2017-11-27T10:27:47.254Z,6.0
2017-11-27T10:28:48.872Z,6.0
2017-11-27T10:29:50.478Z,6.0
2017-11-27T10:30:52.083Z,5.9
2017-11-27T10:31:53.697Z,6.0
2017-11-27T10:32:55.308Z,6.0
2017-11-27T10:33:56.913Z,6.0
2017-11-27T10:34:58.519Z,6.0
2017-11-27T10:36:00.133Z,6.0
2017-11-27T10:37:01.746Z,6.0
2017-11-27T10:38:03.349Z,6.1
2017-11-27T10:39:04.957Z,6.0
2017-11-27T10:40:06.570Z,6.0
2017-11-27T10:41:08.174Z,6.0
2017-11-27T10:42:09.790Z,6.0
2017-11-27T10:43:11.402Z,6.1
2017-11-27T10:44:13.036Z,6.1
2017-11-27T10:45:14.617Z,6.1
2017-11-27T10:46:16.229Z,6.1
2017-11-27T10:47:17.839Z,6.0
2017-11-27T10:48:19.447Z,6.1
2017-11-27T10:49:21.058Z,6.1
2017-11-27T10:50:22.668Z,6.1
2017-11-27T10:51:24.278Z,6.0
2017-11-27T10:52:25.891Z,6.1
2017-11-27T10:53:27.505Z,6.1
2017-11-27T10:54:29.110Z,6.1
2017-11-27T10:55:30.720Z,6.1
2017-11-27T10:56:32.333Z,6.0
2017-11-27T10:57:33.938Z,6.0
2017-11-27T10:58:35.553Z,6.0
2017-11-27T10:59:37.166Z,6.1
2017-11-27T11:00:38.779Z,6.1
2017-11-27T11:01:40.377Z,6.0
2017-11-27T11:02:41.990Z,6.1
2017-11-27T11:03:43.596Z,6.1
2017-11-27T11:04:45.213Z,6.1
2017-11-27T11:05:46.821Z,6.1
2017-11-27T11:06:48.432Z,6.1
2017-11-27T11:07:50.041Z,6.1
2017-11-27T11:08:51.650Z,6.1
2017-11-27T11:09:53.262Z,6.2
2017-11-27T11:10:54.869Z,6.2
2017-11-27T11:11:56.481Z,6.2
2017-11-27T11:12:58.090Z,6.2
2017-11-27T11:13:59.700Z,6.2
2017-11-27T11:15:01.304Z,6.3
2017-11-27T11:16:02.920Z,6.2
2017-11-27T11:17:04.525Z,6.2
2017-11-27T11:18:06.148Z,6.2
2017-11-27T11:19:07.750Z,6.3
2017-11-27T11:20:09.364Z,6.3
2017-11-27T11:21:10.968Z,6.3
2017-11-27T11:22:12.579Z,6.4
2017-11-27T11:23:14.192Z,6.4
2017-11-27T11:24:15.798Z,6.5
2017-11-27T11:25:17.409Z,6.4
2017-11-27T11:26:19.022Z,6.4
2017-11-27T11:27:20.632Z,6.5
2017-11-27T11:28:22.236Z,6.5
2017-11-27T11:29:23.850Z,6.5
2017-11-27T11:30:25.462Z,6.5
2017-11-27T11:31:27.070Z,6.5
2017-11-27T11:32:28.680Z,6.6
2017-11-27T11:33:30.302Z,6.5
2017-11-27T11:34:31.912Z,6.6
2017-11-27T11:35:33.514Z,6.5
2017-11-27T11:36:35.124Z,6.6
2017-11-27T11:37:36.739Z,6.6
2017-11-27T11:38:38.348Z,6.6
2017-11-27T11:39:39.963Z,6.6
2017-11-27T11:40:41.569Z,6.6
2017-11-27T11:41:43.180Z,6.7
2017-11-27T11:42:44.788Z,6.6
2017-11-27T11:43:46.401Z,6.5
2017-11-27T11:44:48.016Z,6.5
2017-11-27T11:45:49.629Z,6.6
2017-11-27T11:46:51.258Z,6.5
2017-11-27T11:47:52.868Z,6.5
2017-11-27T11:48:54.479Z,6.7
2017-11-27T11:49:56.089Z,6.6
2017-11-27T11:50:57.698Z,6.6
2017-11-27T11:51:59.307Z,6.6
2017-11-27T11:53:00.924Z,6.6
2017-11-27T11:54:02.526Z,6.7
2017-11-27T11:55:04.144Z,6.6
2017-11-27T11:56:05.757Z,6.6
2017-11-27T11:57:07.366Z,6.7
2017-11-27T11:58:08.974Z,6.7
2017-11-27T11:59:10.582Z,6.8
2017-11-27T12:00:12.188Z,6.6
2017-11-27T12:01:13.794Z,6.8
2017-11-27T12:02:15.407Z,6.6
2017-11-27T12:03:17.025Z,6.6
2017-11-27T12:04:18.631Z,6.7
2017-11-27T12:05:20.246Z,6.6
2017-11-27T12:06:21.860Z,6.7
2017-11-27T12:07:23.466Z,6.7
2017-11-27T12:08:25.073Z,6.8
2017-11-27T12:09:26.686Z,6.7
2017-11-27T12:10:28.293Z,6.7
2017-11-27T12:11:29.915Z,6.8
2017-11-27T12:12:31.508Z,6.8
2017-11-27T12:13:33.153Z,6.9
2017-11-27T12:14:34.730Z,6.8
2017-11-27T12:15:36.337Z,6.8
2017-11-27T12:16:37.957Z,6.8
2017-11-27T12:17:39.560Z,6.8
2017-11-27T12:18:41.166Z,6.8
2017-11-27T12:19:42.771Z,6.9
2017-11-27T12:20:44.386Z,6.8
2017-11-27T12:21:45.990Z,6.8
2017-11-27T12:22:47.603Z,6.7
2017-11-27T12:23:49.214Z,6.8
2017-11-27T12:24:50.824Z,7.0
2017-11-27T12:25:52.454Z,6.9
2017-11-27T12:26:54.071Z,7.0
2017-11-27T12:27:55.678Z,7.0
2017-11-27T12:28:57.288Z,7.0
2017-11-27T12:29:58.895Z,7.0
2017-11-27T12:31:00.517Z,7.0
2017-11-27T12:32:02.118Z,7.0
2017-11-27T12:33:03.733Z,6.9
2017-11-27T12:34:05.339Z,7.0
2017-11-27T12:35:06.948Z,6.8
2017-11-27T12:36:08.557Z,7.0
2017-11-27T12:37:10.161Z,7.0
2017-11-27T12:38:11.777Z,7.0
2017-11-27T12:39:13.389Z,7.0
2017-11-27T12:40:14.998Z,7.0
2017-11-27T12:41:16.602Z,7.0
2017-11-27T12:42:18.211Z,7.0
2017-11-27T12:43:19.826Z,7.0
2017-11-27T12:44:21.439Z,6.9
2017-11-27T12:45:23.051Z,6.9
2017-11-27T12:46:24.658Z,7.0
2017-11-27T12:47:26.273Z,6.9
2017-11-27T12:48:27.885Z,6.9
2017-11-27T12:49:29.490Z,6.9
2017-11-27T12:50:31.098Z,7.0
2017-11-27T12:51:32.709Z,7.0
2017-11-27T12:52:34.317Z,7.0
2017-11-27T12:53:35.932Z,7.0
2017-11-27T12:54:37.543Z,7.0
2017-11-27T12:55:39.150Z,7.0
2017-11-27T12:56:40.755Z,7.1
2017-11-27T12:57:42.370Z,7.1
2017-11-27T12:58:43.983Z,7.1
2017-11-27T12:59:45.589Z,7.0
2017-11-27T13:00:47.203Z,7.0
2017-11-27T13:01:48.810Z,7.0
2017-11-27T13:02:50.416Z,7.0
2017-11-27T13:03:52.023Z,7.1
2017-11-27T13:04:53.639Z,6.9
2017-11-27T13:06:02.516Z,7.0
2017-11-27T13:07:04.136Z,6.9
2017-11-27T13:08:05.741Z,7.0
2017-11-27T13:09:07.351Z,7.0
2017-11-27T13:10:08.957Z,7.0
2017-11-27T13:11:10.568Z,7.0
2017-11-27T13:12:12.173Z,7.0
2017-11-27T13:13:13.785Z,6.9
2017-11-27T13:14:15.391Z,6.9
2017-11-27T13:15:17.007Z,7.0
2017-11-27T13:16:18.608Z,7.0
2017-11-27T13:17:20.220Z,7.0
2017-11-27T13:18:21.829Z,7.0
2017-11-27T13:19:23.449Z,7.0
2017-11-27T13:20:25.057Z,7.0
2017-11-27T13:21:26.669Z,7.0
2017-11-27T13:22:28.273Z,6.9
2017-11-27T13:23:29.879Z,7.0
2017-11-27T13:24:31.498Z,7.1
2017-11-27T15:07:42.193Z,7.4
2017-11-27T15:08:43.789Z,7.4
2017-11-27T15:10:36.322Z,7.3
2017-11-27T15:11:38.015Z,7.4
2017-11-27T18:25:00.511Z,8.1
2017-11-27T18:26:02.886Z,8.0
2017-11-27T18:32:19.426Z,8.0
2017-11-27T18:33:21.062Z,8.1
2017-11-27T18:34:22.740Z,8.0
2017-11-27T18:35:24.420Z,7.9
2017-11-27T18:36:26.078Z,8.0
2017-11-27T18:37:27.761Z,8.0
2017-11-27T18:38:29.421Z,8.0
2017-11-27T18:39:31.120Z,8.0
2017-11-27T18:40:32.770Z,8.0
2017-11-27T18:41:34.448Z,8.0
2017-11-27T18:42:36.127Z,8.0
2017-11-27T18:43:37.820Z,8.0
2017-11-27T18:44:39.502Z,8.0
2017-11-27T18:45:41.144Z,8.0
2017-11-27T18:46:42.815Z,8.0
2017-11-27T18:47:44.482Z,8.0
2017-11-27T18:48:46.152Z,8.0
2017-11-27T18:49:47.753Z,8.0
2017-11-27T18:50:49.354Z,8.0
2017-11-27T18:51:50.961Z,7.9
2017-11-27T18:52:52.564Z,8.1
2017-11-27T18:53:54.172Z,8.0
2017-11-27T18:54:55.772Z,8.0
2017-11-27T18:55:57.374Z,8.0
2017-11-27T18:56:59.052Z,8.1
2017-11-27T18:58:00.758Z,8.0
2017-11-27T18:59:02.404Z,8.0
2017-11-27T19:00:04.288Z,7.9
2017-11-27T19:01:05.828Z,7.9
2017-11-27T19:02:07.495Z,7.9
2017-11-27T19:03:09.177Z,7.9
2017-11-27T19:04:10.834Z,7.9
2017-11-27T19:05:12.516Z,7.9
2017-11-27T19:06:14.191Z,7.9
2017-11-27T19:07:15.845Z,7.9
2017-11-27T19:08:17.513Z,7.8
2017-11-27T19:09:19.209Z,7.9